createdAt,value
2023-03-06T00:01:01.283Z,3.00
2023-03-06T00:03:28.625Z,2.90
2023-03-06T00:05:57.895Z,2.90
2023-03-06T00:08:26.605Z,3.20
2023-03-06T00:10:54.430Z,3.00
2023-03-06T00:13:22.699Z,3.00
2023-03-06T00:18:17.339Z,3.20
2023-03-06T00:20:44.695Z,3.10
2023-03-06T00:23:12.262Z,2.80
2023-03-06T00:25:43.756Z,2.90
2023-03-06T00:28:12.335Z,2.80
2023-03-06T00:35:34.475Z,2.90
2023-03-06T00:38:01.436Z,2.90
2023-03-06T00:40:28.452Z,2.70
2023-03-06T00:47:50.477Z,2.90
2023-03-06T00:50:17.591Z,2.90
2023-03-06T00:52:44.543Z,2.70
2023-03-06T00:57:39.159Z,2.90
2023-03-06T01:00:07.710Z,2.90
2023-03-06T01:05:03.044Z,2.80
2023-03-06T01:12:28.310Z,2.90
2023-03-06T01:14:55.207Z,2.70
2023-03-06T01:17:22.194Z,2.50
2023-03-06T01:22:16.627Z,2.60
2023-03-06T01:27:10.884Z,2.90
2023-03-06T01:29:37.861Z,3.10
2023-03-06T01:32:05.186Z,3.10
2023-03-06T01:36:59.497Z,2.60
2023-03-06T01:49:29.451Z,3.00
2023-03-06T01:52:05.623Z,3.10
2023-03-06T01:54:42.335Z,3.10
2023-03-06T01:57:15.380Z,3.20
2023-03-06T01:59:43.402Z,3.20
2023-03-06T02:02:12.823Z,3.20
2023-03-06T02:04:42.603Z,3.00
2023-03-06T02:07:10.433Z,3.10
2023-03-06T02:09:38.724Z,3.20
2023-03-06T02:12:16.727Z,3.10
2023-03-06T02:17:14.585Z,2.90
2023-03-06T02:20:20.304Z,3.20
2023-03-06T02:23:21.482Z,3.00
2023-03-06T02:25:51.638Z,3.00
2023-03-06T02:28:24.999Z,3.00
2023-03-06T02:30:55.693Z,3.10
2023-03-06T02:33:27.997Z,3.00
2023-03-06T02:36:03.955Z,3.00
2023-03-06T02:38:50.321Z,2.90
2023-03-06T02:43:49.277Z,3.00
2023-03-06T02:46:16.405Z,3.20
2023-03-06T02:48:43.662Z,3.10
2023-03-06T02:51:10.616Z,2.70
2023-03-06T02:56:05.083Z,3.10
2023-03-06T02:58:32.078Z,3.10
2023-03-06T03:00:59.499Z,3.00
2023-03-06T03:03:26.645Z,2.80
2023-03-06T03:10:57.099Z,2.60
2023-03-06T03:16:07.352Z,3.00
2023-03-06T03:21:02.990Z,2.90
2023-03-06T03:26:10.931Z,3.00
2023-03-06T03:31:11.600Z,3.10
2023-03-06T03:33:40.767Z,0.90
2023-03-06T03:41:07.252Z,3.10
2023-03-06T03:48:29.593Z,3.10
2023-03-06T03:51:09.127Z,3.00
2023-03-06T04:01:10.428Z,3.40
2023-03-06T04:03:37.747Z,2.90
2023-03-06T04:06:07.157Z,2.90
2023-03-06T04:13:32.378Z,3.10
2023-03-06T04:18:29.532Z,3.00
2023-03-06T04:21:00.842Z,2.90
2023-03-06T04:23:28.064Z,2.80
2023-03-06T04:28:23.709Z,2.80
2023-03-06T04:40:49.572Z,2.90
2023-03-06T04:45:44.013Z,2.80
2023-03-06T04:48:15.382Z,2.90
2023-03-06T04:50:42.536Z,2.90
2023-03-06T04:58:05.673Z,2.70
2023-03-06T05:03:01.808Z,2.80
2023-03-06T05:07:56.992Z,3.00
2023-03-06T05:10:24.143Z,3.40
2023-03-06T05:22:43.564Z,2.60
2023-03-06T05:30:06.720Z,2.30
2023-03-06T05:32:35.553Z,2.50
2023-03-06T05:35:03.728Z,2.40
2023-03-06T05:37:31.160Z,2.20
2023-03-06T05:39:58.180Z,3.00
2023-03-06T05:47:23.122Z,2.10
2023-03-06T05:54:50.011Z,2.30
2023-03-06T05:59:46.479Z,2.30
2023-03-06T06:02:13.558Z,2.30
2023-03-06T06:04:40.483Z,2.40
2023-03-06T06:07:07.553Z,2.30
2023-03-06T06:12:03.756Z,2.30
2023-03-06T06:14:33.504Z,2.40
2023-03-06T06:17:00.672Z,2.20
2023-03-06T06:19:31.537Z,2.30
2023-03-06T06:24:27.094Z,2.30
2023-03-06T06:26:56.426Z,2.30
2023-03-06T06:34:19.900Z,2.10
2023-03-06T06:39:17.392Z,2.30
2023-03-06T06:42:02.386Z,2.20
2023-03-06T06:44:32.853Z,2.40
2023-03-06T06:47:21.834Z,2.30
2023-03-06T06:49:54.273Z,2.30
2023-03-06T06:54:49.052Z,2.60
2023-03-06T06:57:16.594Z,2.40
2023-03-06T06:59:43.586Z,2.30
2023-03-06T07:02:13.488Z,2.40
2023-03-06T07:04:52.272Z,2.40
2023-03-06T07:07:28.044Z,2.50
2023-03-06T07:09:56.000Z,2.50
2023-03-06T07:12:23.075Z,2.80
2023-03-06T07:14:49.962Z,2.60
2023-03-06T07:17:16.875Z,2.60
2023-03-06T07:19:44.117Z,2.60
2023-03-06T07:27:06.165Z,2.70
2023-03-06T07:36:56.493Z,2.70
2023-03-06T07:39:23.501Z,2.70
2023-03-06T07:41:52.052Z,2.80
2023-03-06T07:44:19.031Z,2.70
2023-03-06T07:51:41.068Z,2.80
2023-03-06T07:54:08.125Z,2.80
2023-03-06T07:59:02.543Z,2.90
2023-03-06T08:01:29.580Z,2.70
2023-03-06T08:06:27.426Z,2.80
2023-03-06T08:08:55.876Z,2.80
2023-03-06T08:11:26.307Z,2.90
2023-03-06T08:13:54.177Z,3.00
2023-03-06T08:16:28.825Z,3.00
2023-03-06T08:18:56.766Z,3.10
2023-03-06T08:26:28.935Z,3.30
2023-03-06T08:28:58.243Z,3.10
2023-03-06T08:31:40.611Z,3.10
2023-03-06T08:34:20.653Z,3.20
2023-03-06T08:36:47.782Z,3.30
2023-03-06T08:41:42.375Z,3.50
2023-03-06T08:44:10.065Z,3.40
2023-03-06T08:51:34.786Z,3.60
2023-03-06T08:54:01.684Z,3.50
2023-03-06T08:56:34.141Z,3.60
2023-03-06T08:59:03.928Z,3.50
2023-03-06T09:04:10.531Z,3.60
2023-03-06T09:06:42.453Z,3.00
2023-03-06T09:09:09.872Z,3.50
2023-03-06T09:16:33.256Z,3.30
2023-03-06T09:23:55.720Z,3.20
2023-03-06T09:28:59.984Z,3.50
2023-03-06T09:31:26.864Z,3.70
2023-03-06T09:33:53.764Z,3.60
2023-03-06T09:36:22.376Z,3.70
2023-03-06T09:38:49.946Z,3.70
2023-03-06T09:44:23.764Z,3.60
2023-03-06T09:47:15.763Z,3.70
2023-03-06T09:50:12.082Z,3.50
2023-03-06T09:53:38.909Z,3.50
2023-03-06T09:56:31.083Z,3.60
2023-03-06T09:59:12.740Z,3.70
2023-03-06T10:01:45.225Z,3.60
2023-03-06T10:04:32.808Z,3.70
2023-03-06T10:07:22.791Z,3.60
2023-03-06T10:09:57.238Z,3.60
2023-03-06T10:12:48.315Z,3.60
2023-03-06T10:15:25.130Z,3.70
2023-03-06T10:17:52.439Z,3.50
2023-03-06T10:20:48.738Z,3.60
2023-03-06T10:23:53.498Z,3.70
2023-03-06T10:26:26.212Z,3.50
2023-03-06T10:31:58.311Z,3.50
2023-03-06T10:34:32.840Z,3.60
2023-03-06T10:46:55.076Z,3.70
2023-03-06T10:49:37.712Z,3.80
2023-03-06T10:52:22.118Z,4.00
2023-03-06T10:57:28.321Z,3.90
2023-03-06T11:00:06.779Z,3.70
2023-03-06T11:02:37.197Z,3.90
2023-03-06T11:05:05.755Z,3.80
2023-03-06T11:07:37.267Z,3.80
2023-03-06T11:10:19.315Z,3.80
2023-03-06T11:13:16.139Z,3.80
2023-03-06T11:16:26.926Z,4.00
2023-03-06T11:21:34.406Z,4.00
2023-03-06T11:24:08.250Z,4.00
2023-03-06T11:26:43.125Z,4.20
2023-03-06T11:32:14.470Z,4.10
2023-03-06T11:35:05.170Z,4.10
2023-03-06T11:40:28.468Z,4.30
2023-03-06T11:43:17.191Z,4.40
2023-03-06T11:46:10.758Z,4.30
2023-03-06T11:48:47.958Z,4.30
2023-03-06T11:51:23.384Z,4.30
2023-03-06T11:53:50.324Z,4.40
2023-03-06T11:56:20.598Z,4.40
2023-03-06T11:59:26.023Z,4.40
2023-03-06T12:02:39.194Z,4.60
2023-03-06T12:05:39.296Z,4.40
2023-03-06T12:08:28.671Z,4.60
2023-03-06T12:11:10.384Z,4.90
2023-03-06T12:14:07.009Z,4.60
2023-03-06T12:19:57.510Z,4.50
2023-03-06T12:23:14.149Z,4.50
2023-03-06T12:25:59.636Z,4.40
2023-03-06T12:28:55.010Z,4.50
2023-03-06T12:32:17.635Z,4.50
2023-03-06T12:35:30.793Z,4.60
2023-03-06T12:38:12.734Z,4.60
2023-03-06T12:40:47.560Z,4.60
2023-03-06T12:43:42.154Z,4.50
2023-03-06T12:46:17.024Z,4.50
2023-03-06T12:49:08.565Z,4.50
2023-03-06T12:56:32.356Z,4.60
2023-03-06T12:59:03.195Z,4.50
2023-03-06T13:01:42.561Z,4.50
2023-03-06T13:04:36.611Z,4.60
2023-03-06T13:10:25.809Z,4.80
2023-03-06T13:13:01.989Z,4.80
2023-03-06T13:15:46.040Z,4.90
2023-03-06T13:18:22.047Z,4.90
2023-03-06T13:20:56.119Z,4.80
2023-03-06T13:23:43.173Z,4.70
2023-03-06T13:31:52.383Z,4.60
2023-03-06T13:34:31.383Z,6.20
2023-03-06T13:37:17.118Z,4.70
2023-03-06T13:39:56.764Z,4.70
2023-03-06T13:42:39.601Z,4.70
2023-03-06T13:48:33.896Z,4.80
2023-03-06T13:50:46.834Z,2.30
2023-03-06T13:53:51.214Z,4.70
2023-03-06T13:57:23.452Z,4.80
2023-03-06T14:00:11.898Z,4.80
2023-03-06T14:02:55.839Z,4.80
2023-03-06T14:05:23.673Z,4.90
2023-03-06T14:08:10.741Z,4.70
2023-03-06T14:10:39.263Z,4.90
2023-03-06T14:13:30.015Z,4.90
2023-03-06T14:15:59.333Z,4.60
2023-03-06T14:18:40.139Z,4.90
2023-03-06T14:21:13.441Z,4.90
2023-03-06T14:23:44.816Z,4.80
2023-03-06T14:26:19.431Z,4.90
2023-03-06T14:28:52.340Z,4.50
2023-03-06T14:31:23.626Z,4.80
2023-03-06T14:33:57.486Z,5.10
2023-03-06T14:36:48.530Z,4.90
2023-03-06T14:39:20.804Z,5.00
2023-03-06T14:41:47.786Z,5.00
2023-03-06T14:44:24.357Z,4.90
2023-03-06T14:46:58.474Z,4.80
2023-03-06T14:49:26.613Z,4.70
2023-03-06T14:54:37.005Z,4.90
2023-03-06T14:57:13.835Z,5.00
2023-03-06T14:59:58.062Z,4.90
2023-03-06T15:02:32.766Z,4.90
2023-03-06T15:07:33.890Z,4.80
2023-03-06T15:10:01.393Z,4.70
2023-03-06T15:12:31.017Z,4.90
2023-03-06T15:15:18.322Z,5.00
2023-03-06T15:17:48.818Z,4.90
2023-03-06T15:20:54.081Z,4.90
2023-03-06T15:23:40.072Z,5.00
2023-03-06T15:29:24.944Z,4.90
2023-03-06T15:31:52.081Z,5.10
2023-03-06T15:34:24.736Z,4.80
2023-03-06T15:36:57.836Z,4.50
2023-03-06T15:39:46.410Z,4.80
2023-03-06T15:42:25.017Z,4.70
2023-03-06T15:45:05.602Z,4.90
2023-03-06T15:49:59.884Z,4.80
2023-03-06T15:57:29.279Z,4.90
2023-03-06T16:02:24.937Z,5.00
2023-03-06T16:04:52.884Z,3.10
2023-03-06T16:14:48.929Z,4.80
2023-03-06T16:17:17.344Z,4.80
2023-03-06T16:19:44.586Z,4.60
2023-03-06T16:22:11.841Z,4.60
2023-03-06T16:24:39.033Z,4.60
2023-03-06T16:32:02.726Z,4.90
2023-03-06T16:34:29.698Z,4.30
2023-03-06T16:36:56.796Z,4.20
2023-03-06T16:41:52.351Z,4.50
2023-03-06T16:44:20.679Z,4.10
2023-03-06T16:46:50.160Z,4.10
2023-03-06T16:54:24.143Z,4.10
2023-03-06T16:59:18.853Z,4.00
2023-03-06T17:01:46.241Z,3.80
2023-03-06T17:04:13.304Z,4.00
2023-03-06T17:06:41.849Z,3.80
2023-03-06T17:09:10.895Z,3.90
2023-03-06T17:11:45.647Z,3.90
2023-03-06T17:14:13.042Z,3.70
2023-03-06T17:16:40.668Z,3.70
2023-03-06T17:19:08.242Z,3.70
2023-03-06T17:21:37.315Z,3.70
2023-03-06T17:28:59.625Z,3.80
2023-03-06T17:31:28.359Z,3.80
2023-03-06T17:34:00.264Z,3.80
2023-03-06T17:36:28.887Z,3.70
2023-03-06T17:41:24.947Z,3.70
2023-03-06T17:43:55.060Z,3.90
2023-03-06T17:51:16.844Z,3.50
2023-03-06T17:53:43.794Z,3.80
2023-03-06T17:56:14.055Z,3.60
2023-03-06T18:01:19.276Z,3.70
2023-03-06T18:03:49.766Z,3.80
2023-03-06T18:06:18.154Z,3.80
2023-03-06T18:11:14.377Z,3.70
2023-03-06T18:13:43.997Z,3.60
2023-03-06T18:21:13.744Z,3.60
2023-03-06T18:26:15.784Z,3.70
2023-03-06T18:28:47.242Z,3.60
2023-03-06T18:31:27.870Z,3.60
2023-03-06T18:34:00.417Z,3.60
2023-03-06T18:36:31.491Z,3.70
2023-03-06T18:38:59.231Z,3.60
2023-03-06T18:41:26.301Z,3.50
2023-03-06T18:43:55.243Z,3.50
2023-03-06T18:46:23.577Z,3.70
2023-03-06T18:53:46.608Z,3.40
2023-03-06T18:56:20.384Z,3.70
2023-03-06T18:58:48.314Z,3.40
2023-03-06T19:01:15.271Z,3.60
2023-03-06T19:03:42.608Z,3.50
2023-03-06T19:08:40.738Z,4.00
2023-03-06T19:11:15.055Z,3.30
2023-03-06T19:13:43.286Z,3.80
2023-03-06T19:16:18.593Z,3.50
2023-03-06T19:21:19.750Z,3.50
2023-03-06T19:23:47.363Z,3.50
2023-03-06T19:26:15.478Z,3.50
2023-03-06T19:28:43.489Z,3.50
2023-03-06T19:31:24.797Z,3.50
2023-03-06T19:33:53.267Z,3.40
2023-03-06T19:38:55.704Z,3.40
2023-03-06T19:46:21.769Z,3.30
2023-03-06T19:51:20.768Z,3.40
2023-03-06T19:53:50.902Z,3.40
2023-03-06T19:56:27.204Z,3.40
2023-03-06T19:58:54.612Z,3.30
2023-03-06T20:01:24.691Z,3.40
2023-03-06T20:03:58.776Z,3.30
2023-03-06T20:09:03.312Z,3.30
2023-03-06T20:11:30.437Z,3.40
2023-03-06T20:16:30.162Z,3.30
2023-03-06T20:19:00.147Z,3.40
2023-03-06T20:21:30.208Z,3.20
2023-03-06T20:23:58.177Z,3.20
2023-03-06T20:26:28.394Z,3.30
2023-03-06T20:31:26.716Z,3.10
2023-03-06T20:33:55.403Z,3.30
2023-03-06T20:36:27.687Z,3.20
2023-03-06T20:38:55.350Z,3.30
2023-03-06T20:41:28.180Z,3.30
2023-03-06T20:43:55.244Z,3.20
2023-03-06T20:48:52.328Z,3.50
2023-03-06T20:51:28.606Z,3.30
2023-03-06T20:53:55.909Z,3.40
2023-03-06T20:56:27.096Z,3.30
2023-03-06T20:58:54.280Z,3.50
2023-03-06T21:01:28.988Z,3.40
2023-03-06T21:03:57.393Z,3.40
2023-03-06T21:08:52.705Z,3.20
2023-03-06T21:11:19.654Z,3.00
2023-03-06T21:13:46.592Z,3.00
2023-03-06T21:16:16.825Z,3.20
2023-03-06T21:21:18.415Z,2.70
2023-03-06T21:26:20.146Z,3.30
2023-03-06T21:31:17.566Z,3.40
2023-03-06T21:38:40.618Z,3.50
2023-03-06T21:41:17.180Z,4.20
2023-03-06T21:43:44.421Z,3.60
2023-03-06T21:46:12.133Z,3.40
2023-03-06T21:56:09.406Z,3.40
2023-03-06T22:01:17.009Z,3.50
2023-03-06T22:03:43.955Z,3.40
2023-03-06T22:06:14.141Z,3.30
2023-03-06T22:08:42.126Z,3.10
2023-03-06T22:11:12.431Z,3.30
2023-03-06T22:16:08.139Z,3.40
2023-03-06T22:23:38.374Z,3.30
2023-03-06T22:26:08.705Z,3.40
2023-03-06T22:31:19.439Z,3.30
2023-03-06T22:33:46.905Z,3.40
2023-03-06T22:38:45.272Z,3.30
2023-03-06T22:41:15.154Z,3.40
2023-03-06T22:46:17.009Z,4.10
2023-03-06T22:48:44.842Z,3.20
2023-03-06T22:51:16.584Z,3.20
2023-03-06T22:56:15.111Z,3.20
2023-03-06T23:01:15.168Z,3.30
2023-03-06T23:03:45.426Z,3.40
2023-03-06T23:06:24.885Z,3.20
2023-03-06T23:09:03.480Z,3.20
2023-03-06T23:11:31.426Z,3.20
2023-03-06T23:14:18.868Z,3.40
2023-03-06T23:17:04.777Z,3.30
2023-03-06T23:19:50.328Z,3.20
2023-03-06T23:27:49.139Z,3.40
2023-03-06T23:30:16.145Z,3.30
2023-03-06T23:32:45.733Z,3.20
2023-03-06T23:35:13.696Z,3.40
2023-03-06T23:37:40.883Z,3.30
2023-03-06T23:40:09.549Z,3.20
2023-03-06T23:45:04.325Z,3.30
2023-03-06T23:47:33.113Z,3.20
2023-03-06T23:50:00.056Z,3.30
2023-03-06T23:52:27.244Z,3.20
2023-03-06T23:54:54.282Z,3.40
